sensor_id;sensor_type;location;lat;lon;timestamp;P1;durP1;ratioP1;P2;durP2;ratioP2
27728;SDS011;15126;42.186;24.340;2023-11-19T00:01:01;2.80;;;1.83;;
27728;SDS011;15126;42.186;24.340;2023-11-19T00:03:30;1.40;;;1.30;;
27728;SDS011;15126;42.186;24.340;2023-11-19T00:05:58;4.33;;;2.30;;
27728;SDS011;15126;42.186;24.340;2023-11-19T00:08:25;2.43;;;1.50;;
27728;SDS011;15126;42.186;24.340;2023-11-19T00:10:52;2.13;;;1.93;;
27728;SDS011;15126;42.186;24.340;2023-11-19T00:13:19;1.90;;;1.77;;
27728;SDS011;15126;42.186;24.340;2023-11-19T00:15:47;2.40;;;1.60;;
27728;SDS011;15126;42.186;24.340;2023-11-19T00:18:14;1.77;;;1.57;;
27728;SDS011;15126;42.186;24.340;2023-11-19T00:20:41;3.63;;;1.80;;
27728;SDS011;15126;42.186;24.340;2023-11-19T00:23:09;1.63;;;1.53;;
27728;SDS011;15126;42.186;24.340;2023-11-19T00:25:40;2.30;;;2.10;;
27728;SDS011;15126;42.186;24.340;2023-11-19T00:28:08;2.27;;;2.17;;
27728;SDS011;15126;42.186;24.340;2023-11-19T00:30:34;2.33;;;2.13;;
27728;SDS011;15126;42.186;24.340;2023-11-19T00:33:03;1.87;;;1.67;;
27728;SDS011;15126;42.186;24.340;2023-11-19T00:35:30;1.97;;;1.87;;
27728;SDS011;15126;42.186;24.340;2023-11-19T00:37:58;1.60;;;1.50;;
27728;SDS011;15126;42.186;24.340;2023-11-19T00:40:29;2.13;;;1.93;;
27728;SDS011;15126;42.186;24.340;2023-11-19T00:46:00;1.87;;;1.57;;
27728;SDS011;15126;42.186;24.340;2023-11-19T00:48:29;1.60;;;1.50;;
27728;SDS011;15126;42.186;24.340;2023-11-19T00:50:57;1.50;;;1.40;;
27728;SDS011;15126;42.186;24.340;2023-11-19T00:53:24;1.70;;;1.30;;
27728;SDS011;15126;42.186;24.340;2023-11-19T00:55:51;2.20;;;1.70;;
27728;SDS011;15126;42.186;24.340;2023-11-19T00:58:18;3.37;;;1.60;;
27728;SDS011;15126;42.186;24.340;2023-11-19T01:00:45;2.70;;;2.13;;
27728;SDS011;15126;42.186;24.340;2023-11-19T01:03:15;1.70;;;1.60;;
27728;SDS011;15126;42.186;24.340;2023-11-19T01:05:44;1.93;;;1.77;;
27728;SDS011;15126;42.186;24.340;2023-11-19T01:08:12;1.60;;;1.50;;
27728;SDS011;15126;42.186;24.340;2023-11-19T01:10:41;1.97;;;1.87;;
27728;SDS011;15126;42.186;24.340;2023-11-19T01:13:08;1.67;;;1.57;;
27728;SDS011;15126;42.186;24.340;2023-11-19T01:15:35;2.03;;;1.93;;
27728;SDS011;15126;42.186;24.340;2023-11-19T01:18:02;2.07;;;1.87;;
27728;SDS011;15126;42.186;24.340;2023-11-19T01:20:30;2.03;;;1.80;;
27728;SDS011;15126;42.186;24.340;2023-11-19T01:23:00;2.73;;;2.53;;
27728;SDS011;15126;42.186;24.340;2023-11-19T01:25:28;2.00;;;1.90;;
27728;SDS011;15126;42.186;24.340;2023-11-19T01:27:55;1.90;;;1.77;;
27728;SDS011;15126;42.186;24.340;2023-11-19T01:30:23;2.20;;;2.00;;
27728;SDS011;15126;42.186;24.340;2023-11-19T01:32:52;2.33;;;2.13;;
27728;SDS011;15126;42.186;24.340;2023-11-19T01:35:20;3.17;;;1.87;;
27728;SDS011;15126;42.186;24.340;2023-11-19T01:37:48;2.00;;;1.90;;
27728;SDS011;15126;42.186;24.340;2023-11-19T01:40:19;1.97;;;1.80;;
27728;SDS011;15126;42.186;24.340;2023-11-19T01:42:47;2.70;;;1.93;;
27728;SDS011;15126;42.186;24.340;2023-11-19T01:45:21;2.63;;;2.43;;
27728;SDS011;15126;42.186;24.340;2023-11-19T01:47:53;4.03;;;2.20;;
27728;SDS011;15126;42.186;24.340;2023-11-19T01:50:20;4.10;;;2.70;;
27728;SDS011;15126;42.186;24.340;2023-11-19T01:52:50;2.23;;;2.03;;
27728;SDS011;15126;42.186;24.340;2023-11-19T01:55:20;2.43;;;2.23;;
27728;SDS011;15126;42.186;24.340;2023-11-19T01:57:48;2.33;;;2.13;;
27728;SDS011;15126;42.186;24.340;2023-11-19T02:00:16;3.30;;;2.30;;
27728;SDS011;15126;42.186;24.340;2023-11-19T02:02:44;6.67;;;2.33;;
27728;SDS011;15126;42.186;24.340;2023-11-19T02:05:14;2.03;;;1.93;;
27728;SDS011;15126;42.186;24.340;2023-11-19T02:07:41;3.70;;;2.50;;
27728;SDS011;15126;42.186;24.340;2023-11-19T02:10:08;2.90;;;2.63;;
27728;SDS011;15126;42.186;24.340;2023-11-19T02:12:41;2.47;;;2.27;;
27728;SDS011;15126;42.186;24.340;2023-11-19T02:15:09;2.57;;;2.37;;
27728;SDS011;15126;42.186;24.340;2023-11-19T02:17:36;2.10;;;2.00;;
27728;SDS011;15126;42.186;24.340;2023-11-19T02:20:04;2.40;;;2.23;;
27728;SDS011;15126;42.186;24.340;2023-11-19T02:22:34;2.30;;;2.10;;
27728;SDS011;15126;42.186;24.340;2023-11-19T02:25:04;3.20;;;2.40;;
27728;SDS011;15126;42.186;24.340;2023-11-19T02:27:41;3.20;;;2.73;;
27728;SDS011;15126;42.186;24.340;2023-11-19T02:30:19;2.80;;;2.43;;
27728;SDS011;15126;42.186;24.340;2023-11-19T02:32:46;3.87;;;2.87;;
27728;SDS011;15126;42.186;24.340;2023-11-19T02:35:13;2.77;;;2.53;;
27728;SDS011;15126;42.186;24.340;2023-11-19T02:37:40;3.17;;;2.93;;
27728;SDS011;15126;42.186;24.340;2023-11-19T02:40:07;2.43;;;2.07;;
27728;SDS011;15126;42.186;24.340;2023-11-19T02:42:35;3.80;;;2.43;;
27728;SDS011;15126;42.186;24.340;2023-11-19T02:45:07;3.00;;;2.80;;
27728;SDS011;15126;42.186;24.340;2023-11-19T02:47:39;2.67;;;2.47;;
27728;SDS011;15126;42.186;24.340;2023-11-19T02:50:07;4.07;;;2.90;;
27728;SDS011;15126;42.186;24.340;2023-11-19T02:52:39;2.80;;;2.60;;
27728;SDS011;15126;42.186;24.340;2023-11-19T02:55:06;2.77;;;2.57;;
27728;SDS011;15126;42.186;24.340;2023-11-19T02:57:37;14.67;;;4.47;;
27728;SDS011;15126;42.186;24.340;2023-11-19T03:00:08;3.00;;;2.70;;
27728;SDS011;15126;42.186;24.340;2023-11-19T03:02:38;3.00;;;2.70;;
27728;SDS011;15126;42.186;24.340;2023-11-19T03:05:10;3.60;;;3.30;;
27728;SDS011;15126;42.186;24.340;2023-11-19T03:07:39;3.57;;;3.07;;
27728;SDS011;15126;42.186;24.340;2023-11-19T03:10:08;3.80;;;2.80;;
27728;SDS011;15126;42.186;24.340;2023-11-19T03:12:37;3.90;;;3.30;;
27728;SDS011;15126;42.186;24.340;2023-11-19T03:15:05;3.23;;;3.03;;
27728;SDS011;15126;42.186;24.340;2023-11-19T03:17:36;3.10;;;2.90;;
27728;SDS011;15126;42.186;24.340;2023-11-19T03:20:06;6.80;;;5.30;;
27728;SDS011;15126;42.186;24.340;2023-11-19T03:22:34;3.70;;;3.30;;
27728;SDS011;15126;42.186;24.340;2023-11-19T03:25:03;4.03;;;3.27;;
27728;SDS011;15126;42.186;24.340;2023-11-19T03:27:33;3.73;;;3.43;;
27728;SDS011;15126;42.186;24.340;2023-11-19T03:30:01;2.83;;;2.63;;
27728;SDS011;15126;42.186;24.340;2023-11-19T03:32:29;3.50;;;3.20;;
27728;SDS011;15126;42.186;24.340;2023-11-19T03:34:58;3.23;;;3.03;;
27728;SDS011;15126;42.186;24.340;2023-11-19T03:37:25;4.47;;;3.23;;
27728;SDS011;15126;42.186;24.340;2023-11-19T03:39:53;5.20;;;4.03;;
27728;SDS011;15126;42.186;24.340;2023-11-19T03:42:22;5.77;;;4.03;;
27728;SDS011;15126;42.186;24.340;2023-11-19T03:44:51;4.47;;;4.07;;
27728;SDS011;15126;42.186;24.340;2023-11-19T03:47:20;8.87;;;5.73;;
27728;SDS011;15126;42.186;24.340;2023-11-19T03:49:48;3.03;;;2.83;;
27728;SDS011;15126;42.186;24.340;2023-11-19T03:52:16;3.30;;;3.03;;
27728;SDS011;15126;42.186;24.340;2023-11-19T03:54:44;3.27;;;2.97;;
27728;SDS011;15126;42.186;24.340;2023-11-19T03:57:11;3.47;;;3.10;;
27728;SDS011;15126;42.186;24.340;2023-11-19T03:59:38;3.27;;;3.00;;
27728;SDS011;15126;42.186;24.340;2023-11-19T04:02:05;3.77;;;3.47;;
27728;SDS011;15126;42.186;24.340;2023-11-19T04:04:33;6.03;;;4.60;;
27728;SDS011;15126;42.186;24.340;2023-11-19T04:07:00;3.87;;;3.07;;
27728;SDS011;15126;42.186;24.340;2023-11-19T04:09:29;2.30;;;2.20;;
27728;SDS011;15126;42.186;24.340;2023-11-19T04:11:58;2.77;;;2.30;;
27728;SDS011;15126;42.186;24.340;2023-11-19T04:14:25;2.90;;;2.70;;
27728;SDS011;15126;42.186;24.340;2023-11-19T04:16:53;5.03;;;4.63;;
27728;SDS011;15126;42.186;24.340;2023-11-19T04:19:20;5.03;;;4.50;;
27728;SDS011;15126;42.186;24.340;2023-11-19T04:21:47;3.63;;;3.33;;
27728;SDS011;15126;42.186;24.340;2023-11-19T04:24:14;2.90;;;2.60;;
27728;SDS011;15126;42.186;24.340;2023-11-19T04:26:42;2.70;;;2.47;;
27728;SDS011;15126;42.186;24.340;2023-11-19T04:29:11;3.10;;;2.90;;
27728;SDS011;15126;42.186;24.340;2023-11-19T04:31:38;2.63;;;2.50;;
27728;SDS011;15126;42.186;24.340;2023-11-19T04:34:05;3.40;;;2.80;;
27728;SDS011;15126;42.186;24.340;2023-11-19T04:36:32;5.80;;;5.10;;
27728;SDS011;15126;42.186;24.340;2023-11-19T04:38:59;3.80;;;3.50;;
27728;SDS011;15126;42.186;24.340;2023-11-19T04:41:33;4.70;;;3.83;;
27728;SDS011;15126;42.186;24.340;2023-11-19T04:44:01;2.90;;;2.70;;
27728;SDS011;15126;42.186;24.340;2023-11-19T04:46:28;7.30;;;6.07;;
27728;SDS011;15126;42.186;24.340;2023-11-19T04:48:56;5.83;;;4.80;;
27728;SDS011;15126;42.186;24.340;2023-11-19T04:51:22;4.23;;;3.83;;
27728;SDS011;15126;42.186;24.340;2023-11-19T04:53:49;7.37;;;6.00;;
27728;SDS011;15126;42.186;24.340;2023-11-19T04:56:16;9.47;;;7.20;;
27728;SDS011;15126;42.186;24.340;2023-11-19T04:58:45;3.90;;;3.50;;
27728;SDS011;15126;42.186;24.340;2023-11-19T05:01:16;2.90;;;2.70;;
27728;SDS011;15126;42.186;24.340;2023-11-19T05:03:43;3.90;;;3.60;;
27728;SDS011;15126;42.186;24.340;2023-11-19T05:06:10;3.13;;;2.90;;
27728;SDS011;15126;42.186;24.340;2023-11-19T05:08:37;3.17;;;2.90;;
27728;SDS011;15126;42.186;24.340;2023-11-19T05:11:04;3.63;;;3.23;;
27728;SDS011;15126;42.186;24.340;2023-11-19T05:13:32;3.50;;;3.20;;
27728;SDS011;15126;42.186;24.340;2023-11-19T05:15:59;3.13;;;2.93;;
27728;SDS011;15126;42.186;24.340;2023-11-19T05:18:27;3.97;;;3.43;;
27728;SDS011;15126;42.186;24.340;2023-11-19T05:20:54;5.20;;;4.77;;
27728;SDS011;15126;42.186;24.340;2023-11-19T05:23:24;3.03;;;2.83;;
27728;SDS011;15126;42.186;24.340;2023-11-19T05:25:51;6.40;;;3.23;;
27728;SDS011;15126;42.186;24.340;2023-11-19T05:28:18;3.47;;;3.17;;
27728;SDS011;15126;42.186;24.340;2023-11-19T05:30:47;4.00;;;3.60;;
27728;SDS011;15126;42.186;24.340;2023-11-19T05:33:16;3.67;;;3.23;;
27728;SDS011;15126;42.186;24.340;2023-11-19T05:35:45;6.70;;;5.73;;
27728;SDS011;15126;42.186;24.340;2023-11-19T05:38:12;4.80;;;4.07;;
27728;SDS011;15126;42.186;24.340;2023-11-19T05:40:40;5.60;;;5.10;;
27728;SDS011;15126;42.186;24.340;2023-11-19T05:43:08;4.40;;;4.00;;
27728;SDS011;15126;42.186;24.340;2023-11-19T05:45:43;4.10;;;3.80;;
27728;SDS011;15126;42.186;24.340;2023-11-19T05:48:10;3.70;;;3.40;;
27728;SDS011;15126;42.186;24.340;2023-11-19T05:50:38;5.20;;;4.80;;
27728;SDS011;15126;42.186;24.340;2023-11-19T05:53:06;5.00;;;4.40;;
27728;SDS011;15126;42.186;24.340;2023-11-19T05:55:35;4.30;;;4.00;;
27728;SDS011;15126;42.186;24.340;2023-11-19T05:58:14;3.33;;;3.10;;
27728;SDS011;15126;42.186;24.340;2023-11-19T06:00:42;3.17;;;2.93;;
27728;SDS011;15126;42.186;24.340;2023-11-19T06:03:09;3.43;;;3.23;;
27728;SDS011;15126;42.186;24.340;2023-11-19T06:05:36;3.23;;;3.03;;
27728;SDS011;15126;42.186;24.340;2023-11-19T06:08:03;3.60;;;3.10;;
27728;SDS011;15126;42.186;24.340;2023-11-19T06:10:37;4.17;;;3.80;;
27728;SDS011;15126;42.186;24.340;2023-11-19T06:13:05;5.07;;;4.57;;
27728;SDS011;15126;42.186;24.340;2023-11-19T06:15:32;8.73;;;6.87;;
27728;SDS011;15126;42.186;24.340;2023-11-19T06:18:03;5.73;;;4.63;;
27728;SDS011;15126;42.186;24.340;2023-11-19T06:20:30;10.27;;;4.70;;
27728;SDS011;15126;42.186;24.340;2023-11-19T06:22:59;4.27;;;3.03;;
27728;SDS011;15126;42.186;24.340;2023-11-19T06:25:26;4.90;;;3.17;;
27728;SDS011;15126;42.186;24.340;2023-11-19T06:27:55;5.27;;;4.83;;
27728;SDS011;15126;42.186;24.340;2023-11-19T06:30:25;5.93;;;5.17;;
27728;SDS011;15126;42.186;24.340;2023-11-19T06:32:58;3.77;;;3.47;;
27728;SDS011;15126;42.186;24.340;2023-11-19T06:35:25;4.30;;;3.90;;
27728;SDS011;15126;42.186;24.340;2023-11-19T06:38:01;4.70;;;3.70;;
27728;SDS011;15126;42.186;24.340;2023-11-19T06:40:29;3.77;;;3.43;;
27728;SDS011;15126;42.186;24.340;2023-11-19T06:43:00;6.70;;;3.27;;
27728;SDS011;15126;42.186;24.340;2023-11-19T06:45:30;3.57;;;3.23;;
27728;SDS011;15126;42.186;24.340;2023-11-19T06:47:57;4.67;;;3.47;;
27728;SDS011;15126;42.186;24.340;2023-11-19T06:50:35;2.90;;;2.67;;
27728;SDS011;15126;42.186;24.340;2023-11-19T06:53:03;3.87;;;2.93;;
27728;SDS011;15126;42.186;24.340;2023-11-19T06:55:31;3.93;;;3.40;;
27728;SDS011;15126;42.186;24.340;2023-11-19T06:58:00;3.27;;;2.97;;
27728;SDS011;15126;42.186;24.340;2023-11-19T07:00:28;3.20;;;2.90;;
27728;SDS011;15126;42.186;24.340;2023-11-19T07:02:58;3.93;;;3.63;;
27728;SDS011;15126;42.186;24.340;2023-11-19T07:05:24;4.90;;;4.27;;
27728;SDS011;15126;42.186;24.340;2023-11-19T07:07:51;3.40;;;3.20;;
27728;SDS011;15126;42.186;24.340;2023-11-19T07:10:19;2.97;;;2.77;;
27728;SDS011;15126;42.186;24.340;2023-11-19T07:12:45;3.80;;;2.97;;
27728;SDS011;15126;42.186;24.340;2023-11-19T07:15:16;3.03;;;2.83;;
27728;SDS011;15126;42.186;24.340;2023-11-19T07:17:44;4.03;;;3.30;;
27728;SDS011;15126;42.186;24.340;2023-11-19T07:20:11;3.70;;;3.20;;
27728;SDS011;15126;42.186;24.340;2023-11-19T07:22:41;3.80;;;3.50;;
27728;SDS011;15126;42.186;24.340;2023-11-19T07:25:11;3.70;;;3.40;;
27728;SDS011;15126;42.186;24.340;2023-11-19T07:27:39;3.40;;;3.13;;
27728;SDS011;15126;42.186;24.340;2023-11-19T07:30:07;4.27;;;3.87;;
27728;SDS011;15126;42.186;24.340;2023-11-19T07:32:35;4.87;;;3.83;;
27728;SDS011;15126;42.186;24.340;2023-11-19T07:35:04;3.30;;;3.00;;
27728;SDS011;15126;42.186;24.340;2023-11-19T07:37:32;4.73;;;3.00;;
27728;SDS011;15126;42.186;24.340;2023-11-19T07:40:02;4.10;;;3.27;;
27728;SDS011;15126;42.186;24.340;2023-11-19T07:42:30;4.70;;;4.03;;
27728;SDS011;15126;42.186;24.340;2023-11-19T07:44:57;2.60;;;2.30;;
27728;SDS011;15126;42.186;24.340;2023-11-19T07:47:25;5.03;;;3.30;;
27728;SDS011;15126;42.186;24.340;2023-11-19T07:49:55;7.37;;;4.17;;
27728;SDS011;15126;42.186;24.340;2023-11-19T07:52:22;11.20;;;7.40;;
27728;SDS011;15126;42.186;24.340;2023-11-19T07:54:52;7.83;;;5.70;;
27728;SDS011;15126;42.186;24.340;2023-11-19T07:57:22;114.47;;;63.27;;
27728;SDS011;15126;42.186;24.340;2023-11-19T07:59:53;10.63;;;6.70;;
27728;SDS011;15126;42.186;24.340;2023-11-19T08:02:20;12.00;;;7.27;;
27728;SDS011;15126;42.186;24.340;2023-11-19T08:04:48;73.77;;;44.90;;
27728;SDS011;15126;42.186;24.340;2023-11-19T08:07:21;108.00;;;73.57;;
27728;SDS011;15126;42.186;24.340;2023-11-19T08:09:50;155.43;;;102.97;;
27728;SDS011;15126;42.186;24.340;2023-11-19T08:12:18;95.93;;;67.93;;
27728;SDS011;15126;42.186;24.340;2023-11-19T08:14:45;107.97;;;81.67;;
27728;SDS011;15126;42.186;24.340;2023-11-19T08:17:12;27.00;;;22.77;;
27728;SDS011;15126;42.186;24.340;2023-11-19T08:19:39;61.07;;;45.53;;
27728;SDS011;15126;42.186;24.340;2023-11-19T08:22:08;22.00;;;16.93;;
27728;SDS011;15126;42.186;24.340;2023-11-19T08:24:36;83.30;;;65.63;;
27728;SDS011;15126;42.186;24.340;2023-11-19T08:27:06;19.20;;;14.83;;
27728;SDS011;15126;42.186;24.340;2023-11-19T08:29:33;15.20;;;11.73;;
27728;SDS011;15126;42.186;24.340;2023-11-19T08:32:00;54.90;;;43.07;;
27728;SDS011;15126;42.186;24.340;2023-11-19T08:34:28;138.33;;;111.87;;
27728;SDS011;15126;42.186;24.340;2023-11-19T08:36:56;14.50;;;12.23;;
27728;SDS011;15126;42.186;24.340;2023-11-19T08:39:23;56.33;;;46.50;;
27728;SDS011;15126;42.186;24.340;2023-11-19T08:41:56;35.50;;;29.47;;
27728;SDS011;15126;42.186;24.340;2023-11-19T08:44:23;8.57;;;7.77;;
27728;SDS011;15126;42.186;24.340;2023-11-19T08:46:50;6.23;;;4.53;;
27728;SDS011;15126;42.186;24.340;2023-11-19T08:49:17;42.13;;;27.67;;
27728;SDS011;15126;42.186;24.340;2023-11-19T08:51:47;9.00;;;3.27;;
27728;SDS011;15126;42.186;24.340;2023-11-19T08:57:14;5.30;;;4.73;;
27728;SDS011;15126;42.186;24.340;2023-11-19T08:59:41;3.37;;;3.07;;
27728;SDS011;15126;42.186;24.340;2023-11-19T09:02:09;11.73;;;6.53;;
27728;SDS011;15126;42.186;24.340;2023-11-19T09:04:36;5.93;;;5.13;;
27728;SDS011;15126;42.186;24.340;2023-11-19T09:07:03;6.83;;;5.23;;
27728;SDS011;15126;42.186;24.340;2023-11-19T09:09:30;12.57;;;10.83;;
27728;SDS011;15126;42.186;24.340;2023-11-19T09:12:01;8.13;;;6.63;;
27728;SDS011;15126;42.186;24.340;2023-11-19T09:14:30;31.33;;;23.30;;
27728;SDS011;15126;42.186;24.340;2023-11-19T09:16:58;10.37;;;8.97;;
27728;SDS011;15126;42.186;24.340;2023-11-19T09:19:32;9.80;;;8.87;;
27728;SDS011;15126;42.186;24.340;2023-11-19T09:22:01;12.47;;;8.50;;
27728;SDS011;15126;42.186;24.340;2023-11-19T09:24:28;8.43;;;7.57;;
27728;SDS011;15126;42.186;24.340;2023-11-19T09:26:58;4.57;;;4.13;;
27728;SDS011;15126;42.186;24.340;2023-11-19T09:29:25;9.23;;;4.63;;
27728;SDS011;15126;42.186;24.340;2023-11-19T09:31:54;5.33;;;3.60;;
27728;SDS011;15126;42.186;24.340;2023-11-19T09:34:39;4.87;;;4.27;;
27728;SDS011;15126;42.186;24.340;2023-11-19T09:37:06;5.30;;;3.93;;
27728;SDS011;15126;42.186;24.340;2023-11-19T09:39:35;4.57;;;4.17;;
27728;SDS011;15126;42.186;24.340;2023-11-19T09:42:03;3.60;;;3.30;;
27728;SDS011;15126;42.186;24.340;2023-11-19T09:44:31;4.33;;;3.93;;
27728;SDS011;15126;42.186;24.340;2023-11-19T09:47:00;4.13;;;3.70;;
27728;SDS011;15126;42.186;24.340;2023-11-19T09:49:28;4.93;;;4.43;;
27728;SDS011;15126;42.186;24.340;2023-11-19T09:51:56;5.20;;;4.80;;
27728;SDS011;15126;42.186;24.340;2023-11-19T09:54:24;6.50;;;4.70;;
27728;SDS011;15126;42.186;24.340;2023-11-19T09:56:51;4.57;;;4.13;;
27728;SDS011;15126;42.186;24.340;2023-11-19T09:59:18;5.50;;;4.37;;
27728;SDS011;15126;42.186;24.340;2023-11-19T10:01:48;3.53;;;3.23;;
27728;SDS011;15126;42.186;24.340;2023-11-19T10:04:17;3.60;;;3.30;;
27728;SDS011;15126;42.186;24.340;2023-11-19T10:06:45;4.10;;;3.73;;
27728;SDS011;15126;42.186;24.340;2023-11-19T10:09:13;3.07;;;2.77;;
27728;SDS011;15126;42.186;24.340;2023-11-19T10:11:42;3.87;;;3.57;;
27728;SDS011;15126;42.186;24.340;2023-11-19T10:14:09;5.40;;;3.63;;
27728;SDS011;15126;42.186;24.340;2023-11-19T10:16:36;4.77;;;3.07;;
27728;SDS011;15126;42.186;24.340;2023-11-19T10:19:11;3.30;;;2.93;;
27728;SDS011;15126;42.186;24.340;2023-11-19T10:21:46;2.83;;;2.60;;
27728;SDS011;15126;42.186;24.340;2023-11-19T10:24:13;4.67;;;3.37;;
27728;SDS011;15126;42.186;24.340;2023-11-19T10:26:40;3.60;;;3.27;;
27728;SDS011;15126;42.186;24.340;2023-11-19T10:29:08;4.00;;;3.70;;
27728;SDS011;15126;42.186;24.340;2023-11-19T10:31:35;4.10;;;3.73;;
27728;SDS011;15126;42.186;24.340;2023-11-19T10:34:03;3.43;;;3.13;;
27728;SDS011;15126;42.186;24.340;2023-11-19T10:36:54;4.97;;;4.10;;
27728;SDS011;15126;42.186;24.340;2023-11-19T10:39:21;4.50;;;4.13;;
27728;SDS011;15126;42.186;24.340;2023-11-19T10:41:53;5.03;;;4.63;;
27728;SDS011;15126;42.186;24.340;2023-11-19T10:44:32;5.33;;;4.80;;
27728;SDS011;15126;42.186;24.340;2023-11-19T10:47:01;11.83;;;9.30;;
27728;SDS011;15126;42.186;24.340;2023-11-19T10:49:31;8.83;;;7.30;;
27728;SDS011;15126;42.186;24.340;2023-11-19T10:52:01;6.53;;;5.57;;
27728;SDS011;15126;42.186;24.340;2023-11-19T10:54:33;4.57;;;4.17;;
27728;SDS011;15126;42.186;24.340;2023-11-19T10:57:01;5.33;;;4.40;;
27728;SDS011;15126;42.186;24.340;2023-11-19T10:59:29;5.40;;;5.00;;
27728;SDS011;15126;42.186;24.340;2023-11-19T11:01:57;20.83;;;16.77;;
27728;SDS011;15126;42.186;24.340;2023-11-19T11:04:31;29.43;;;20.10;;
27728;SDS011;15126;42.186;24.340;2023-11-19T11:07:00;20.00;;;14.80;;
27728;SDS011;15126;42.186;24.340;2023-11-19T11:09:29;25.93;;;19.63;;
27728;SDS011;15126;42.186;24.340;2023-11-19T11:11:59;17.93;;;11.30;;
27728;SDS011;15126;42.186;24.340;2023-11-19T11:14:28;5.77;;;5.17;;
27728;SDS011;15126;42.186;24.340;2023-11-19T11:16:57;4.90;;;4.50;;
27728;SDS011;15126;42.186;24.340;2023-11-19T11:19:24;4.47;;;4.17;;
27728;SDS011;15126;42.186;24.340;2023-11-19T11:21:53;4.67;;;4.27;;
27728;SDS011;15126;42.186;24.340;2023-11-19T11:24:35;7.93;;;5.23;;
27728;SDS011;15126;42.186;24.340;2023-11-19T11:27:33;6.93;;;6.27;;
27728;SDS011;15126;42.186;24.340;2023-11-19T11:30:18;5.10;;;4.40;;
27728;SDS011;15126;42.186;24.340;2023-11-19T11:33:02;13.63;;;12.30;;
27728;SDS011;15126;42.186;24.340;2023-11-19T11:35:52;7.70;;;6.30;;
27728;SDS011;15126;42.186;24.340;2023-11-19T11:38:28;10.23;;;9.13;;
27728;SDS011;15126;42.186;24.340;2023-11-19T11:43:48;8.97;;;8.10;;
27728;SDS011;15126;42.186;24.340;2023-11-19T11:49:26;5.57;;;5.17;;
27728;SDS011;15126;42.186;24.340;2023-11-19T11:52:02;5.87;;;5.00;;
27728;SDS011;15126;42.186;24.340;2023-11-19T11:54:30;39.57;;;22.33;;
27728;SDS011;15126;42.186;24.340;2023-11-19T11:57:06;6.77;;;5.97;;
27728;SDS011;15126;42.186;24.340;2023-11-19T11:59:42;15.33;;;12.57;;
27728;SDS011;15126;42.186;24.340;2023-11-19T12:02:14;40.53;;;25.27;;
27728;SDS011;15126;42.186;24.340;2023-11-19T12:04:42;45.10;;;25.87;;
27728;SDS011;15126;42.186;24.340;2023-11-19T12:07:13;44.30;;;26.23;;
27728;SDS011;15126;42.186;24.340;2023-11-19T12:09:42;11.37;;;9.23;;
27728;SDS011;15126;42.186;24.340;2023-11-19T12:12:26;53.17;;;32.27;;
27728;SDS011;15126;42.186;24.340;2023-11-19T12:15:02;37.20;;;17.93;;
27728;SDS011;15126;42.186;24.340;2023-11-19T12:17:46;21.27;;;13.77;;
27728;SDS011;15126;42.186;24.340;2023-11-19T12:20:21;11.03;;;9.13;;
27728;SDS011;15126;42.186;24.340;2023-11-19T12:22:49;14.10;;;9.67;;
27728;SDS011;15126;42.186;24.340;2023-11-19T12:25:17;11.40;;;8.83;;
27728;SDS011;15126;42.186;24.340;2023-11-19T12:27:48;21.40;;;15.20;;
27728;SDS011;15126;42.186;24.340;2023-11-19T12:30:21;24.03;;;16.47;;
27728;SDS011;15126;42.186;24.340;2023-11-19T12:32:49;18.63;;;13.40;;
27728;SDS011;15126;42.186;24.340;2023-11-19T12:35:18;25.67;;;18.03;;
27728;SDS011;15126;42.186;24.340;2023-11-19T12:37:46;20.87;;;15.70;;
27728;SDS011;15126;42.186;24.340;2023-11-19T12:40:14;63.80;;;39.03;;
27728;SDS011;15126;42.186;24.340;2023-11-19T12:42:47;13.80;;;9.43;;
27728;SDS011;15126;42.186;24.340;2023-11-19T12:45:16;19.00;;;13.30;;
27728;SDS011;15126;42.186;24.340;2023-11-19T12:47:46;10.43;;;8.47;;
27728;SDS011;15126;42.186;24.340;2023-11-19T12:50:15;16.83;;;8.40;;
27728;SDS011;15126;42.186;24.340;2023-11-19T12:52:55;8.67;;;6.60;;
27728;SDS011;15126;42.186;24.340;2023-11-19T12:55:26;17.23;;;12.80;;
27728;SDS011;15126;42.186;24.340;2023-11-19T12:58:02;12.77;;;10.00;;
27728;SDS011;15126;42.186;24.340;2023-11-19T13:00:30;15.13;;;11.23;;
27728;SDS011;15126;42.186;24.340;2023-11-19T13:03:02;15.30;;;9.20;;
27728;SDS011;15126;42.186;24.340;2023-11-19T13:05:30;44.77;;;26.20;;
27728;SDS011;15126;42.186;24.340;2023-11-19T13:08:01;29.97;;;17.13;;
27728;SDS011;15126;42.186;24.340;2023-11-19T13:10:30;16.47;;;12.03;;
27728;SDS011;15126;42.186;24.340;2023-11-19T13:13:07;26.60;;;16.17;;
27728;SDS011;15126;42.186;24.340;2023-11-19T13:15:39;36.97;;;22.30;;
27728;SDS011;15126;42.186;24.340;2023-11-19T13:18:06;18.40;;;13.17;;
27728;SDS011;15126;42.186;24.340;2023-11-19T13:20:35;14.93;;;9.33;;
27728;SDS011;15126;42.186;24.340;2023-11-19T13:23:02;32.43;;;16.97;;
27728;SDS011;15126;42.186;24.340;2023-11-19T13:25:32;9.97;;;7.00;;
27728;SDS011;15126;42.186;24.340;2023-11-19T13:28:01;43.23;;;25.37;;
27728;SDS011;15126;42.186;24.340;2023-11-19T13:30:28;39.93;;;20.27;;
27728;SDS011;15126;42.186;24.340;2023-11-19T13:32:57;44.13;;;25.50;;
27728;SDS011;15126;42.186;24.340;2023-11-19T13:35:24;19.47;;;12.53;;
27728;SDS011;15126;42.186;24.340;2023-11-19T13:37:55;34.77;;;19.23;;
27728;SDS011;15126;42.186;24.340;2023-11-19T13:40:21;9.60;;;8.70;;
27728;SDS011;15126;42.186;24.340;2023-11-19T13:42:52;15.43;;;11.77;;
27728;SDS011;15126;42.186;24.340;2023-11-19T13:45:20;32.27;;;20.63;;
27728;SDS011;15126;42.186;24.340;2023-11-19T13:47:49;21.43;;;17.50;;
27728;SDS011;15126;42.186;24.340;2023-11-19T13:50:17;15.37;;;12.03;;
27728;SDS011;15126;42.186;24.340;2023-11-19T13:52:47;13.73;;;9.40;;
27728;SDS011;15126;42.186;24.340;2023-11-19T13:55:16;9.37;;;7.37;;
27728;SDS011;15126;42.186;24.340;2023-11-19T13:57:43;18.50;;;12.57;;
27728;SDS011;15126;42.186;24.340;2023-11-19T14:00:12;39.80;;;24.80;;
27728;SDS011;15126;42.186;24.340;2023-11-19T14:02:43;49.40;;;30.63;;
27728;SDS011;15126;42.186;24.340;2023-11-19T14:05:10;10.90;;;8.37;;
27728;SDS011;15126;42.186;24.340;2023-11-19T14:07:38;8.50;;;6.30;;
27728;SDS011;15126;42.186;24.340;2023-11-19T14:10:06;10.90;;;9.30;;
27728;SDS011;15126;42.186;24.340;2023-11-19T14:12:40;16.87;;;13.80;;
27728;SDS011;15126;42.186;24.340;2023-11-19T14:15:10;34.03;;;22.60;;
27728;SDS011;15126;42.186;24.340;2023-11-19T14:17:38;28.70;;;19.97;;
27728;SDS011;15126;42.186;24.340;2023-11-19T14:20:09;24.63;;;16.43;;
27728;SDS011;15126;42.186;24.340;2023-11-19T14:22:43;46.27;;;27.63;;
27728;SDS011;15126;42.186;24.340;2023-11-19T14:25:14;43.37;;;27.70;;
27728;SDS011;15126;42.186;24.340;2023-11-19T14:27:41;14.37;;;10.50;;
27728;SDS011;15126;42.186;24.340;2023-11-19T14:30:11;32.87;;;27.23;;
27728;SDS011;15126;42.186;24.340;2023-11-19T14:32:42;27.97;;;21.20;;
27728;SDS011;15126;42.186;24.340;2023-11-19T14:35:12;12.20;;;10.27;;
27728;SDS011;15126;42.186;24.340;2023-11-19T14:37:39;8.40;;;6.97;;
27728;SDS011;15126;42.186;24.340;2023-11-19T14:40:07;10.07;;;8.13;;
27728;SDS011;15126;42.186;24.340;2023-11-19T14:42:36;13.90;;;10.53;;
27728;SDS011;15126;42.186;24.340;2023-11-19T14:45:06;8.70;;;7.47;;
27728;SDS011;15126;42.186;24.340;2023-11-19T14:47:37;9.57;;;8.67;;
27728;SDS011;15126;42.186;24.340;2023-11-19T14:50:05;14.53;;;10.80;;
27728;SDS011;15126;42.186;24.340;2023-11-19T14:52:35;11.77;;;9.23;;